sensor_id;sensor_type;location;lat;lon;timestamp;P1;durP1;ratioP1;P2;durP2;ratioP2
7531;SDS011;3807;49.030;8.714;2022-12-29T00:01:22;3.50;;;1.50;;
7531;SDS011;3807;49.030;8.714;2022-12-29T00:03:47;3.93;;;1.60;;
7531;SDS011;3807;49.030;8.714;2022-12-29T00:06:13;6.50;;;1.80;;
7531;SDS011;3807;49.030;8.714;2022-12-29T00:08:38;4.20;;;1.50;;
7531;SDS011;3807;49.030;8.714;2022-12-29T00:11:11;1.77;;;1.30;;
7531;SDS011;3807;49.030;8.714;2022-12-29T00:13:44;1.90;;;1.70;;
7531;SDS011;3807;49.030;8.714;2022-12-29T00:16:28;2.83;;;1.43;;
7531;SDS011;3807;49.030;8.714;2022-12-29T00:18:54;1.40;;;1.27;;
7531;SDS011;3807;49.030;8.714;2022-12-29T00:21:20;4.00;;;1.60;;
7531;SDS011;3807;49.030;8.714;2022-12-29T00:24:06;3.23;;;1.70;;
7531;SDS011;3807;49.030;8.714;2022-12-29T00:27:03;3.30;;;1.40;;
7531;SDS011;3807;49.030;8.714;2022-12-29T00:29:54;2.20;;;1.40;;
7531;SDS011;3807;49.030;8.714;2022-12-29T00:32:38;4.57;;;1.50;;
7531;SDS011;3807;49.030;8.714;2022-12-29T00:37:52;4.20;;;1.43;;
7531;SDS011;3807;49.030;8.714;2022-12-29T00:40:38;2.00;;;1.17;;
7531;SDS011;3807;49.030;8.714;2022-12-29T00:43:22;3.37;;;1.43;;
7531;SDS011;3807;49.030;8.714;2022-12-29T00:46:06;3.67;;;1.30;;
7531;SDS011;3807;49.030;8.714;2022-12-29T00:48:32;7.07;;;1.53;;
7531;SDS011;3807;49.030;8.714;2022-12-29T00:51:16;1.53;;;1.20;;
7531;SDS011;3807;49.030;8.714;2022-12-29T00:53:41;1.93;;;1.13;;
7531;SDS011;3807;49.030;8.714;2022-12-29T00:56:07;1.30;;;1.10;;
7531;SDS011;3807;49.030;8.714;2022-12-29T00:58:32;7.13;;;1.50;;
7531;SDS011;3807;49.030;8.714;2022-12-29T01:01:04;2.23;;;1.30;;
7531;SDS011;3807;49.030;8.714;2022-12-29T01:03:31;5.00;;;1.40;;
7531;SDS011;3807;49.030;8.714;2022-12-29T01:05:59;6.90;;;1.70;;
7531;SDS011;3807;49.030;8.714;2022-12-29T01:08:29;2.47;;;1.33;;
7531;SDS011;3807;49.030;8.714;2022-12-29T01:10:59;2.60;;;1.47;;
7531;SDS011;3807;49.030;8.714;2022-12-29T01:13:25;2.77;;;1.40;;
7531;SDS011;3807;49.030;8.714;2022-12-29T01:15:51;4.70;;;1.67;;
7531;SDS011;3807;49.030;8.714;2022-12-29T01:18:17;1.70;;;1.20;;
7531;SDS011;3807;49.030;8.714;2022-12-29T01:20:42;2.43;;;1.50;;
7531;SDS011;3807;49.030;8.714;2022-12-29T01:23:07;2.60;;;1.37;;
7531;SDS011;3807;49.030;8.714;2022-12-29T01:25:32;1.77;;;1.30;;
7531;SDS011;3807;49.030;8.714;2022-12-29T01:27:58;3.27;;;1.60;;
7531;SDS011;3807;49.030;8.714;2022-12-29T01:30:23;5.10;;;1.93;;
7531;SDS011;3807;49.030;8.714;2022-12-29T01:32:48;1.70;;;1.37;;
7531;SDS011;3807;49.030;8.714;2022-12-29T01:35:14;2.13;;;1.40;;
7531;SDS011;3807;49.030;8.714;2022-12-29T01:37:39;3.27;;;1.90;;
7531;SDS011;3807;49.030;8.714;2022-12-29T01:40:05;2.47;;;1.67;;
7531;SDS011;3807;49.030;8.714;2022-12-29T01:42:30;1.47;;;1.37;;
7531;SDS011;3807;49.030;8.714;2022-12-29T01:44:56;2.23;;;1.63;;
7531;SDS011;3807;49.030;8.714;2022-12-29T01:50:06;2.77;;;1.80;;
7531;SDS011;3807;49.030;8.714;2022-12-29T01:52:36;5.43;;;1.53;;
7531;SDS011;3807;49.030;8.714;2022-12-29T01:55:06;2.67;;;1.37;;
7531;SDS011;3807;49.030;8.714;2022-12-29T01:57:34;1.60;;;1.20;;
7531;SDS011;3807;49.030;8.714;2022-12-29T02:00:04;4.20;;;1.57;;
7531;SDS011;3807;49.030;8.714;2022-12-29T02:02:32;2.00;;;1.40;;
7531;SDS011;3807;49.030;8.714;2022-12-29T02:04:59;4.13;;;1.53;;
7531;SDS011;3807;49.030;8.714;2022-12-29T02:07:32;1.67;;;1.30;;
7531;SDS011;3807;49.030;8.714;2022-12-29T02:09:58;1.93;;;1.40;;
7531;SDS011;3807;49.030;8.714;2022-12-29T02:12:26;3.73;;;1.40;;
7531;SDS011;3807;49.030;8.714;2022-12-29T02:14:53;1.20;;;0.90;;
7531;SDS011;3807;49.030;8.714;2022-12-29T02:31:01;1.93;;;1.30;;
7531;SDS011;3807;49.030;8.714;2022-12-29T02:50:08;1.50;;;1.00;;
7531;SDS011;3807;49.030;8.714;2022-12-29T02:52:59;2.37;;;1.30;;
7531;SDS011;3807;49.030;8.714;2022-12-29T02:55:27;2.77;;;1.47;;
7531;SDS011;3807;49.030;8.714;2022-12-29T03:00:33;3.37;;;1.10;;
7531;SDS011;3807;49.030;8.714;2022-12-29T03:11:08;4.10;;;1.37;;
7531;SDS011;3807;49.030;8.714;2022-12-29T03:14:06;3.33;;;1.27;;
7531;SDS011;3807;49.030;8.714;2022-12-29T03:16:59;1.20;;;1.07;;
7531;SDS011;3807;49.030;8.714;2022-12-29T03:19:35;2.90;;;1.50;;
7531;SDS011;3807;49.030;8.714;2022-12-29T03:22:04;2.70;;;1.50;;
7531;SDS011;3807;49.030;8.714;2022-12-29T03:24:52;1.60;;;1.10;;
7531;SDS011;3807;49.030;8.714;2022-12-29T03:27:42;1.40;;;1.30;;
7531;SDS011;3807;49.030;8.714;2022-12-29T03:30:10;2.03;;;1.10;;
7531;SDS011;3807;49.030;8.714;2022-12-29T03:32:44;1.43;;;1.10;;
7531;SDS011;3807;49.030;8.714;2022-12-29T03:35:14;2.67;;;1.57;;
7531;SDS011;3807;49.030;8.714;2022-12-29T03:37:49;1.30;;;1.20;;
7531;SDS011;3807;49.030;8.714;2022-12-29T03:40:20;1.57;;;1.13;;
7531;SDS011;3807;49.030;8.714;2022-12-29T03:42:47;2.77;;;1.10;;
7531;SDS011;3807;49.030;8.714;2022-12-29T03:45:13;2.03;;;1.17;;
7531;SDS011;3807;49.030;8.714;2022-12-29T03:47:39;1.37;;;1.20;;
7531;SDS011;3807;49.030;8.714;2022-12-29T03:50:04;2.27;;;1.20;;
7531;SDS011;3807;49.030;8.714;2022-12-29T03:52:30;1.67;;;1.10;;
7531;SDS011;3807;49.030;8.714;2022-12-29T03:54:56;2.13;;;1.20;;
7531;SDS011;3807;49.030;8.714;2022-12-29T03:57:21;1.10;;;1.00;;
7531;SDS011;3807;49.030;8.714;2022-12-29T03:59:47;2.03;;;1.20;;
7531;SDS011;3807;49.030;8.714;2022-12-29T04:02:12;2.33;;;1.13;;
7531;SDS011;3807;49.030;8.714;2022-12-29T04:04:37;1.63;;;1.00;;
7531;SDS011;3807;49.030;8.714;2022-12-29T04:07:03;1.90;;;1.30;;
7531;SDS011;3807;49.030;8.714;2022-12-29T04:09:28;2.27;;;1.10;;
7531;SDS011;3807;49.030;8.714;2022-12-29T04:11:54;1.90;;;1.20;;
7531;SDS011;3807;49.030;8.714;2022-12-29T04:14:20;5.00;;;1.10;;
7531;SDS011;3807;49.030;8.714;2022-12-29T04:16:45;4.10;;;1.50;;
7531;SDS011;3807;49.030;8.714;2022-12-29T04:19:10;3.63;;;1.13;;
7531;SDS011;3807;49.030;8.714;2022-12-29T04:21:36;1.83;;;0.90;;
7531;SDS011;3807;49.030;8.714;2022-12-29T04:24:01;1.70;;;1.20;;
7531;SDS011;3807;49.030;8.714;2022-12-29T04:26:26;1.00;;;0.83;;
7531;SDS011;3807;49.030;8.714;2022-12-29T04:28:52;1.07;;;1.00;;
7531;SDS011;3807;49.030;8.714;2022-12-29T04:31:17;1.77;;;1.03;;
7531;SDS011;3807;49.030;8.714;2022-12-29T04:33:43;2.47;;;1.20;;
7531;SDS011;3807;49.030;8.714;2022-12-29T04:36:08;1.13;;;0.97;;
7531;SDS011;3807;49.030;8.714;2022-12-29T04:38:33;1.43;;;1.17;;
7531;SDS011;3807;49.030;8.714;2022-12-29T04:41:00;3.00;;;1.30;;
7531;SDS011;3807;49.030;8.714;2022-12-29T04:43:26;2.07;;;1.10;;
7531;SDS011;3807;49.030;8.714;2022-12-29T04:45:51;1.43;;;1.00;;
7531;SDS011;3807;49.030;8.714;2022-12-29T04:48:17;1.17;;;1.00;;
7531;SDS011;3807;49.030;8.714;2022-12-29T04:50:42;1.37;;;1.10;;
7531;SDS011;3807;49.030;8.714;2022-12-29T04:53:08;1.30;;;1.10;;
7531;SDS011;3807;49.030;8.714;2022-12-29T04:55:34;1.03;;;1.00;;
7531;SDS011;3807;49.030;8.714;2022-12-29T04:57:59;1.63;;;1.00;;
7531;SDS011;3807;49.030;8.714;2022-12-29T05:00:25;1.37;;;1.27;;
7531;SDS011;3807;49.030;8.714;2022-12-29T05:02:50;2.13;;;1.00;;
7531;SDS011;3807;49.030;8.714;2022-12-29T05:05:16;1.57;;;1.20;;
7531;SDS011;3807;49.030;8.714;2022-12-29T05:07:41;1.37;;;1.00;;
7531;SDS011;3807;49.030;8.714;2022-12-29T05:10:07;1.20;;;1.10;;
7531;SDS011;3807;49.030;8.714;2022-12-29T05:12:33;1.80;;;1.23;;
7531;SDS011;3807;49.030;8.714;2022-12-29T05:15:00;1.57;;;1.20;;
7531;SDS011;3807;49.030;8.714;2022-12-29T05:17:27;2.43;;;1.20;;
7531;SDS011;3807;49.030;8.714;2022-12-29T05:19:53;2.60;;;1.10;;
7531;SDS011;3807;49.030;8.714;2022-12-29T05:22:18;2.83;;;1.20;;
7531;SDS011;3807;49.030;8.714;2022-12-29T05:24:44;1.27;;;1.00;;
7531;SDS011;3807;49.030;8.714;2022-12-29T05:27:09;2.50;;;1.33;;
7531;SDS011;3807;49.030;8.714;2022-12-29T05:29:35;1.37;;;1.10;;
7531;SDS011;3807;49.030;8.714;2022-12-29T05:32:00;3.87;;;1.30;;
7531;SDS011;3807;49.030;8.714;2022-12-29T05:34:25;3.93;;;1.70;;
7531;SDS011;3807;49.030;8.714;2022-12-29T05:36:51;2.30;;;1.30;;
7531;SDS011;3807;49.030;8.714;2022-12-29T05:39:16;2.00;;;1.20;;
7531;SDS011;3807;49.030;8.714;2022-12-29T05:41:41;1.60;;;1.50;;
7531;SDS011;3807;49.030;8.714;2022-12-29T05:44:07;1.73;;;1.40;;
7531;SDS011;3807;49.030;8.714;2022-12-29T05:46:32;2.43;;;1.70;;
7531;SDS011;3807;49.030;8.714;2022-12-29T05:48:58;2.77;;;1.57;;
7531;SDS011;3807;49.030;8.714;2022-12-29T05:51:23;2.97;;;1.57;;
7531;SDS011;3807;49.030;8.714;2022-12-29T05:53:48;2.67;;;1.30;;
7531;SDS011;3807;49.030;8.714;2022-12-29T05:56:14;2.13;;;1.20;;
7531;SDS011;3807;49.030;8.714;2022-12-29T05:58:39;1.53;;;1.30;;
7531;SDS011;3807;49.030;8.714;2022-12-29T06:01:05;1.77;;;1.00;;
7531;SDS011;3807;49.030;8.714;2022-12-29T06:03:30;2.23;;;1.17;;
7531;SDS011;3807;49.030;8.714;2022-12-29T06:05:55;1.60;;;1.23;;
7531;SDS011;3807;49.030;8.714;2022-12-29T06:08:21;1.73;;;1.23;;
7531;SDS011;3807;49.030;8.714;2022-12-29T06:10:46;1.30;;;1.10;;
7531;SDS011;3807;49.030;8.714;2022-12-29T06:13:11;1.13;;;1.00;;
7531;SDS011;3807;49.030;8.714;2022-12-29T06:15:37;3.27;;;1.23;;
7531;SDS011;3807;49.030;8.714;2022-12-29T06:18:02;1.30;;;1.00;;
7531;SDS011;3807;49.030;8.714;2022-12-29T06:20:27;1.87;;;1.30;;
7531;SDS011;3807;49.030;8.714;2022-12-29T06:22:53;1.80;;;1.47;;
7531;SDS011;3807;49.030;8.714;2022-12-29T06:25:18;1.63;;;1.30;;
7531;SDS011;3807;49.030;8.714;2022-12-29T06:27:43;2.07;;;1.50;;
7531;SDS011;3807;49.030;8.714;2022-12-29T06:30:09;2.07;;;1.13;;
7531;SDS011;3807;49.030;8.714;2022-12-29T06:32:36;1.63;;;1.10;;
7531;SDS011;3807;49.030;8.714;2022-12-29T06:35:02;3.07;;;1.37;;
7531;SDS011;3807;49.030;8.714;2022-12-29T06:37:28;1.40;;;1.30;;
7531;SDS011;3807;49.030;8.714;2022-12-29T06:39:54;2.90;;;1.10;;
7531;SDS011;3807;49.030;8.714;2022-12-29T06:42:19;3.37;;;1.30;;
7531;SDS011;3807;49.030;8.714;2022-12-29T06:44:45;1.87;;;1.27;;
7531;SDS011;3807;49.030;8.714;2022-12-29T06:47:10;1.40;;;1.07;;
7531;SDS011;3807;49.030;8.714;2022-12-29T06:49:36;1.10;;;0.97;;
7531;SDS011;3807;49.030;8.714;2022-12-29T06:52:01;2.80;;;1.30;;
7531;SDS011;3807;49.030;8.714;2022-12-29T06:54:29;1.30;;;1.20;;
7531;SDS011;3807;49.030;8.714;2022-12-29T06:56:54;3.53;;;1.37;;
7531;SDS011;3807;49.030;8.714;2022-12-29T06:59:20;4.53;;;1.30;;
7531;SDS011;3807;49.030;8.714;2022-12-29T07:01:45;2.50;;;1.37;;
7531;SDS011;3807;49.030;8.714;2022-12-29T07:04:10;2.73;;;1.30;;
7531;SDS011;3807;49.030;8.714;2022-12-29T07:06:36;3.60;;;1.30;;
7531;SDS011;3807;49.030;8.714;2022-12-29T07:09:01;5.40;;;1.33;;
7531;SDS011;3807;49.030;8.714;2022-12-29T07:11:27;2.17;;;1.57;;
7531;SDS011;3807;49.030;8.714;2022-12-29T07:13:52;2.97;;;1.20;;
7531;SDS011;3807;49.030;8.714;2022-12-29T07:16:17;3.10;;;1.40;;
7531;SDS011;3807;49.030;8.714;2022-12-29T07:18:43;2.67;;;1.60;;
7531;SDS011;3807;49.030;8.714;2022-12-29T07:21:08;2.67;;;1.77;;
7531;SDS011;3807;49.030;8.714;2022-12-29T07:23:34;3.50;;;1.90;;
7531;SDS011;3807;49.030;8.714;2022-12-29T07:26:06;1.83;;;1.30;;
7531;SDS011;3807;49.030;8.714;2022-12-29T07:28:34;1.97;;;1.40;;
7531;SDS011;3807;49.030;8.714;2022-12-29T07:31:00;2.20;;;1.20;;
7531;SDS011;3807;49.030;8.714;2022-12-29T07:33:28;1.50;;;1.30;;
7531;SDS011;3807;49.030;8.714;2022-12-29T07:35:53;3.00;;;1.70;;
7531;SDS011;3807;49.030;8.714;2022-12-29T07:38:19;2.13;;;1.40;;
7531;SDS011;3807;49.030;8.714;2022-12-29T07:40:44;3.00;;;1.50;;
7531;SDS011;3807;49.030;8.714;2022-12-29T07:43:10;5.23;;;1.43;;
7531;SDS011;3807;49.030;8.714;2022-12-29T07:45:35;1.70;;;1.20;;
7531;SDS011;3807;49.030;8.714;2022-12-29T07:48:00;2.93;;;1.33;;
7531;SDS011;3807;49.030;8.714;2022-12-29T07:50:27;3.30;;;1.47;;
7531;SDS011;3807;49.030;8.714;2022-12-29T07:52:53;1.80;;;1.20;;
7531;SDS011;3807;49.030;8.714;2022-12-29T07:55:18;1.80;;;1.50;;
7531;SDS011;3807;49.030;8.714;2022-12-29T07:57:43;1.97;;;1.23;;
7531;SDS011;3807;49.030;8.714;2022-12-29T08:00:09;3.37;;;1.47;;
7531;SDS011;3807;49.030;8.714;2022-12-29T08:02:35;2.47;;;1.50;;
7531;SDS011;3807;49.030;8.714;2022-12-29T08:05:01;1.57;;;1.33;;
7531;SDS011;3807;49.030;8.714;2022-12-29T08:07:26;3.10;;;1.50;;
7531;SDS011;3807;49.030;8.714;2022-12-29T08:09:52;2.53;;;1.40;;
7531;SDS011;3807;49.030;8.714;2022-12-29T08:12:17;2.17;;;1.60;;
7531;SDS011;3807;49.030;8.714;2022-12-29T08:14:43;2.27;;;1.20;;
7531;SDS011;3807;49.030;8.714;2022-12-29T08:17:08;5.13;;;1.40;;
7531;SDS011;3807;49.030;8.714;2022-12-29T08:19:35;1.40;;;1.10;;
7531;SDS011;3807;49.030;8.714;2022-12-29T08:22:00;4.13;;;1.57;;
7531;SDS011;3807;49.030;8.714;2022-12-29T08:24:26;2.67;;;1.47;;
7531;SDS011;3807;49.030;8.714;2022-12-29T08:26:51;2.27;;;1.40;;
7531;SDS011;3807;49.030;8.714;2022-12-29T08:29:17;2.20;;;1.47;;
7531;SDS011;3807;49.030;8.714;2022-12-29T08:31:42;3.30;;;1.57;;
7531;SDS011;3807;49.030;8.714;2022-12-29T08:34:08;2.93;;;1.23;;
7531;SDS011;3807;49.030;8.714;2022-12-29T08:36:33;4.07;;;1.43;;
7531;SDS011;3807;49.030;8.714;2022-12-29T08:38:59;3.70;;;1.33;;
7531;SDS011;3807;49.030;8.714;2022-12-29T08:41:24;2.83;;;1.57;;
7531;SDS011;3807;49.030;8.714;2022-12-29T08:43:49;4.93;;;1.60;;
7531;SDS011;3807;49.030;8.714;2022-12-29T08:46:15;3.03;;;1.50;;
7531;SDS011;3807;49.030;8.714;2022-12-29T08:48:41;3.73;;;1.70;;
7531;SDS011;3807;49.030;8.714;2022-12-29T08:51:07;3.17;;;1.10;;
7531;SDS011;3807;49.030;8.714;2022-12-29T08:53:32;3.37;;;1.30;;
7531;SDS011;3807;49.030;8.714;2022-12-29T08:55:59;3.50;;;1.83;;
7531;SDS011;3807;49.030;8.714;2022-12-29T08:58:26;2.50;;;1.30;;
7531;SDS011;3807;49.030;8.714;2022-12-29T09:00:54;3.33;;;1.70;;
7531;SDS011;3807;49.030;8.714;2022-12-29T09:03:21;3.93;;;1.80;;
7531;SDS011;3807;49.030;8.714;2022-12-29T09:05:51;1.97;;;1.30;;
7531;SDS011;3807;49.030;8.714;2022-12-29T09:08:17;3.43;;;1.63;;
7531;SDS011;3807;49.030;8.714;2022-12-29T09:10:43;3.27;;;1.50;;
7531;SDS011;3807;49.030;8.714;2022-12-29T09:13:10;3.60;;;1.40;;
7531;SDS011;3807;49.030;8.714;2022-12-29T09:15:36;2.30;;;1.57;;
7531;SDS011;3807;49.030;8.714;2022-12-29T09:18:01;2.37;;;1.60;;
7531;SDS011;3807;49.030;8.714;2022-12-29T09:20:27;3.20;;;1.80;;
7531;SDS011;3807;49.030;8.714;2022-12-29T09:22:52;1.53;;;1.30;;
7531;SDS011;3807;49.030;8.714;2022-12-29T09:25:18;2.17;;;1.50;;
7531;SDS011;3807;49.030;8.714;2022-12-29T09:27:44;2.10;;;1.50;;
7531;SDS011;3807;49.030;8.714;2022-12-29T09:30:11;2.80;;;1.50;;
7531;SDS011;3807;49.030;8.714;2022-12-29T09:32:37;2.73;;;1.60;;
7531;SDS011;3807;49.030;8.714;2022-12-29T09:35:03;4.93;;;1.80;;
7531;SDS011;3807;49.030;8.714;2022-12-29T09:37:29;2.83;;;1.90;;
7531;SDS011;3807;49.030;8.714;2022-12-29T09:39:54;3.53;;;1.40;;
7531;SDS011;3807;49.030;8.714;2022-12-29T09:45:39;2.07;;;1.40;;
7531;SDS011;3807;49.030;8.714;2022-12-29T09:47:42;1.63;;;1.30;;
7531;SDS011;3807;49.030;8.714;2022-12-29T09:50:10;1.47;;;1.20;;
7531;SDS011;3807;49.030;8.714;2022-12-29T09:52:49;2.10;;;1.33;;
7531;SDS011;3807;49.030;8.714;2022-12-29T09:55:23;1.47;;;1.30;;
7531;SDS011;3807;49.030;8.714;2022-12-29T09:58:13;1.87;;;1.20;;
7531;SDS011;3807;49.030;8.714;2022-12-29T10:01:05;2.23;;;1.30;;
7531;SDS011;3807;49.030;8.714;2022-12-29T10:04:00;2.07;;;1.33;;
7531;SDS011;3807;49.030;8.714;2022-12-29T10:25:29;2.67;;;1.50;;
7531;SDS011;3807;49.030;8.714;2022-12-29T10:27:59;2.03;;;1.60;;
7531;SDS011;3807;49.030;8.714;2022-12-29T10:30:28;2.83;;;1.10;;
7531;SDS011;3807;49.030;8.714;2022-12-29T10:32:55;2.87;;;1.70;;
7531;SDS011;3807;49.030;8.714;2022-12-29T10:35:24;3.87;;;1.70;;
7531;SDS011;3807;49.030;8.714;2022-12-29T10:43:43;3.57;;;1.33;;
7531;SDS011;3807;49.030;8.714;2022-12-29T10:46:12;4.30;;;1.33;;
7531;SDS011;3807;49.030;8.714;2022-12-29T10:48:42;2.47;;;1.60;;
7531;SDS011;3807;49.030;8.714;2022-12-29T10:51:20;3.40;;;1.50;;
7531;SDS011;3807;49.030;8.714;2022-12-29T11:01:55;3.30;;;1.20;;
7531;SDS011;3807;49.030;8.714;2022-12-29T11:07:51;2.43;;;1.30;;
7531;SDS011;3807;49.030;8.714;2022-12-29T11:15:44;2.00;;;1.63;;
7531;SDS011;3807;49.030;8.714;2022-12-29T11:18:18;2.20;;;1.23;;
7531;SDS011;3807;49.030;8.714;2022-12-29T11:20:52;2.90;;;1.43;;
7531;SDS011;3807;49.030;8.714;2022-12-29T11:26:05;3.00;;;1.80;;
7531;SDS011;3807;49.030;8.714;2022-12-29T11:28:30;2.27;;;1.47;;
7531;SDS011;3807;49.030;8.714;2022-12-29T11:31:01;2.63;;;1.20;;
7531;SDS011;3807;49.030;8.714;2022-12-29T11:33:28;4.50;;;3.20;;
7531;SDS011;3807;49.030;8.714;2022-12-29T11:35:58;8.23;;;3.83;;
7531;SDS011;3807;49.030;8.714;2022-12-29T11:38:34;1.80;;;1.40;;
7531;SDS011;3807;49.030;8.714;2022-12-29T11:41:02;6.30;;;2.40;;
7531;SDS011;3807;49.030;8.714;2022-12-29T11:43:34;3.00;;;2.10;;
7531;SDS011;3807;49.030;8.714;2022-12-29T11:46:03;2.43;;;1.60;;
7531;SDS011;3807;49.030;8.714;2022-12-29T11:48:32;3.13;;;1.70;;
7531;SDS011;3807;49.030;8.714;2022-12-29T11:51:03;8.07;;;1.73;;
7531;SDS011;3807;49.030;8.714;2022-12-29T11:53:49;3.97;;;2.00;;
7531;SDS011;3807;49.030;8.714;2022-12-29T11:56:19;1.60;;;1.43;;
7531;SDS011;3807;49.030;8.714;2022-12-29T11:58:47;3.43;;;1.40;;
7531;SDS011;3807;49.030;8.714;2022-12-29T12:01:17;2.90;;;1.40;;
7531;SDS011;3807;49.030;8.714;2022-12-29T12:06:23;3.07;;;1.27;;
7531;SDS011;3807;49.030;8.714;2022-12-29T12:14:07;3.07;;;1.03;;
7531;SDS011;3807;49.030;8.714;2022-12-29T12:16:38;2.67;;;0.90;;
7531;SDS011;3807;49.030;8.714;2022-12-29T12:21:39;1.57;;;1.10;;
7531;SDS011;3807;49.030;8.714;2022-12-29T12:29:58;1.67;;;1.00;;
7531;SDS011;3807;49.030;8.714;2022-12-29T12:35:15;1.67;;;1.10;;
7531;SDS011;3807;49.030;8.714;2022-12-29T12:41:11;3.03;;;1.40;;
7531;SDS011;3807;49.030;8.714;2022-12-29T12:43:43;4.07;;;1.67;;
7531;SDS011;3807;49.030;8.714;2022-12-29T12:49:26;2.07;;;1.23;;
7531;SDS011;3807;49.030;8.714;2022-12-29T13:00:05;4.57;;;2.20;;
7531;SDS011;3807;49.030;8.714;2022-12-29T13:05:30;2.60;;;1.80;;
7531;SDS011;3807;49.030;8.714;2022-12-29T13:08:24;1.47;;;1.30;;
7531;SDS011;3807;49.030;8.714;2022-12-29T13:27:34;2.63;;;1.77;;
7531;SDS011;3807;49.030;8.714;2022-12-29T13:30:22;2.33;;;1.60;;
7531;SDS011;3807;49.030;8.714;2022-12-29T13:38:51;4.77;;;1.57;;
7531;SDS011;3807;49.030;8.714;2022-12-29T13:41:25;5.73;;;2.63;;
7531;SDS011;3807;49.030;8.714;2022-12-29T13:44:04;3.50;;;1.90;;
7531;SDS011;3807;49.030;8.714;2022-12-29T13:46:37;3.97;;;1.93;;
7531;SDS011;3807;49.030;8.714;2022-12-29T13:49:10;4.87;;;2.27;;
7531;SDS011;3807;49.030;8.714;2022-12-29T13:51:57;4.50;;;2.47;;
7531;SDS011;3807;49.030;8.714;2022-12-29T14:00:19;3.57;;;1.50;;
7531;SDS011;3807;49.030;8.714;2022-12-29T14:02:50;1.10;;;1.00;;
7531;SDS011;3807;49.030;8.714;2022-12-29T14:07:48;3.13;;;1.00;;
7531;SDS011;3807;49.030;8.714;2022-12-29T14:10:28;3.13;;;1.20;;
7531;SDS011;3807;49.030;8.714;2022-12-29T14:13:03;2.07;;;1.20;;
7531;SDS011;3807;49.030;8.714;2022-12-29T14:15:29;1.10;;;0.97;;
7531;SDS011;3807;49.030;8.714;2022-12-29T14:18:09;1.93;;;0.90;;
7531;SDS011;3807;49.030;8.714;2022-12-29T14:20:36;1.63;;;0.70;;
7531;SDS011;3807;49.030;8.714;2022-12-29T14:29:03;1.67;;;1.03;;
7531;SDS011;3807;49.030;8.714;2022-12-29T14:33:39;1.30;;;1.00;;
7531;SDS011;3807;49.030;8.714;2022-12-29T14:36:26;4.13;;;1.33;;
7531;SDS011;3807;49.030;8.714;2022-12-29T14:38:57;2.40;;;1.10;;
7531;SDS011;3807;49.030;8.714;2022-12-29T14:41:24;1.70;;;1.00;;
7531;SDS011;3807;49.030;8.714;2022-12-29T14:43:58;2.90;;;1.20;;
7531;SDS011;3807;49.030;8.714;2022-12-29T14:46:41;0.90;;;0.90;;
7531;SDS011;3807;49.030;8.714;2022-12-29T14:49:10;1.13;;;1.03;;
7531;SDS011;3807;49.030;8.714;2022-12-29T14:51:42;0.80;;;0.80;;
7531;SDS011;3807;49.030;8.714;2022-12-29T14:54:54;1.90;;;1.10;;
7531;SDS011;3807;49.030;8.714;2022-12-29T14:57:04;2.20;;;0.90;;
7531;SDS011;3807;49.030;8.714;2022-12-29T14:59:33;0.83;;;0.70;;
7531;SDS011;3807;49.030;8.714;2022-12-29T15:02:01;4.03;;;1.00;;
7531;SDS011;3807;49.030;8.714;2022-12-29T15:04:32;1.53;;;0.93;;
7531;SDS011;3807;49.030;8.714;2022-12-29T15:07:00;0.90;;;0.83;;
7531;SDS011;3807;49.030;8.714;2022-12-29T15:09:35;1.27;;;0.90;;
7531;SDS011;3807;49.030;8.714;2022-12-29T15:15:01;2.13;;;0.90;;
7531;SDS011;3807;49.030;8.714;2022-12-29T15:17:43;0.80;;;0.80;;
7531;SDS011;3807;49.030;8.714;2022-12-29T15:20:19;1.93;;;1.00;;
7531;SDS011;3807;49.030;8.714;2022-12-29T15:23:34;5.60;;;2.27;;
7531;SDS011;3807;49.030;8.714;2022-12-29T15:25:55;2.23;;;1.10;;
7531;SDS011;3807;49.030;8.714;2022-12-29T15:28:20;4.97;;;1.30;;
7531;SDS011;3807;49.030;8.714;2022-12-29T15:30:53;1.20;;;0.93;;
7531;SDS011;3807;49.030;8.714;2022-12-29T15:33:22;1.70;;;1.00;;
7531;SDS011;3807;49.030;8.714;2022-12-29T15:35:49;2.47;;;1.10;;
7531;SDS011;3807;49.030;8.714;2022-12-29T15:38:20;1.30;;;1.00;;
7531;SDS011;3807;49.030;8.714;2022-12-29T15:40:48;3.40;;;1.00;;
7531;SDS011;3807;49.030;8.714;2022-12-29T15:46:00;1.90;;;1.10;;
7531;SDS011;3807;49.030;8.714;2022-12-29T15:48:28;2.20;;;1.20;;
7531;SDS011;3807;49.030;8.714;2022-12-29T15:50:56;4.73;;;1.53;;
7531;SDS011;3807;49.030;8.714;2022-12-29T15:55:56;2.53;;;1.70;;
7531;SDS011;3807;49.030;8.714;2022-12-29T15:58:26;1.87;;;1.50;;
7531;SDS011;3807;49.030;8.714;2022-12-29T16:00:54;1.87;;;1.40;;
7531;SDS011;3807;49.030;8.714;2022-12-29T16:03:22;6.17;;;1.57;;
7531;SDS011;3807;49.030;8.714;2022-12-29T16:08:39;3.33;;;1.10;;
7531;SDS011;3807;49.030;8.714;2022-12-29T16:11:26;3.57;;;1.37;;
7531;SDS011;3807;49.030;8.714;2022-12-29T16:13:53;2.43;;;1.30;;
7531;SDS011;3807;49.030;8.714;2022-12-29T16:16:30;1.87;;;1.17;;
7531;SDS011;3807;49.030;8.714;2022-12-29T16:19:00;1.40;;;1.10;;
7531;SDS011;3807;49.030;8.714;2022-12-29T16:21:32;2.50;;;1.40;;
7531;SDS011;3807;49.030;8.714;2022-12-29T16:24:02;3.10;;;1.50;;
7531;SDS011;3807;49.030;8.714;2022-12-29T16:26:31;3.57;;;1.77;;
7531;SDS011;3807;49.030;8.714;2022-12-29T16:28:58;2.53;;;1.37;;
7531;SDS011;3807;49.030;8.714;2022-12-29T16:31:33;2.53;;;1.33;;
7531;SDS011;3807;49.030;8.714;2022-12-29T16:34:21;2.47;;;1.30;;
7531;SDS011;3807;49.030;8.714;2022-12-29T16:36:54;2.63;;;1.80;;
7531;SDS011;3807;49.030;8.714;2022-12-29T16:39:25;3.67;;;1.43;;
7531;SDS011;3807;49.030;8.714;2022-12-29T16:41:54;6.63;;;2.87;;
7531;SDS011;3807;49.030;8.714;2022-12-29T16:44:21;2.47;;;1.90;;
7531;SDS011;3807;49.030;8.714;2022-12-29T16:47:16;12.83;;;7.10;;
7531;SDS011;3807;49.030;8.714;2022-12-29T16:49:49;11.37;;;6.27;;
7531;SDS011;3807;49.030;8.714;2022-12-29T16:52:22;8.87;;;3.87;;
7531;SDS011;3807;49.030;8.714;2022-12-29T16:54:54;12.53;;;3.37;;
7531;SDS011;3807;49.030;8.714;2022-12-29T16:57:31;8.43;;;3.00;;
7531;SDS011;3807;49.030;8.714;2022-12-29T17:00:03;5.87;;;3.10;;
7531;SDS011;3807;49.030;8.714;2022-12-29T17:02:31;6.00;;;2.23;;
7531;SDS011;3807;49.030;8.714;2022-12-29T17:04:59;4.67;;;2.83;;
7531;SDS011;3807;49.030;8.714;2022-12-29T17:07:26;6.60;;;2.50;;
7531;SDS011;3807;49.030;8.714;2022-12-29T17:09:53;3.37;;;1.80;;
7531;SDS011;3807;49.030;8.714;2022-12-29T17:12:25;2.77;;;1.80;;
7531;SDS011;3807;49.030;8.714;2022-12-29T17:17:37;3.20;;;1.53;;
7531;SDS011;3807;49.030;8.714;2022-12-29T17:22:45;8.63;;;2.77;;
7531;SDS011;3807;49.030;8.714;2022-12-29T17:25:11;4.23;;;2.60;;
7531;SDS011;3807;49.030;8.714;2022-12-29T17:30:18;5.97;;;3.20;;
7531;SDS011;3807;49.030;8.714;2022-12-29T17:35:34;4.93;;;1.73;;
7531;SDS011;3807;49.030;8.714;2022-12-29T17:37:59;4.87;;;1.83;;
7531;SDS011;3807;49.030;8.714;2022-12-29T17:40:26;4.33;;;2.30;;
7531;SDS011;3807;49.030;8.714;2022-12-29T17:42:53;7.53;;;2.43;;
7531;SDS011;3807;49.030;8.714;2022-12-29T17:45:22;4.53;;;2.23;;
7531;SDS011;3807;49.030;8.714;2022-12-29T17:47:49;3.63;;;1.97;;
7531;SDS011;3807;49.030;8.714;2022-12-29T17:50:16;8.80;;;1.83;;
7531;SDS011;3807;49.030;8.714;2022-12-29T17:52:45;4.93;;;2.00;;
7531;SDS011;3807;49.030;8.714;2022-12-29T17:55:16;3.30;;;1.93;;
7531;SDS011;3807;49.030;8.714;2022-12-29T17:57:43;7.83;;;2.73;;
7531;SDS011;3807;49.030;8.714;2022-12-29T18:00:19;6.43;;;1.67;;
7531;SDS011;3807;49.030;8.714;2022-12-29T18:02:47;9.43;;;2.10;;
7531;SDS011;3807;49.030;8.714;2022-12-29T18:07:44;4.80;;;1.80;;
7531;SDS011;3807;49.030;8.714;2022-12-29T18:10:10;5.53;;;1.73;;
7531;SDS011;3807;49.030;8.714;2022-12-29T18:12:39;7.70;;;2.60;;
7531;SDS011;3807;49.030;8.714;2022-12-29T18:15:09;3.37;;;1.87;;
7531;SDS011;3807;49.030;8.714;2022-12-29T18:17:46;5.03;;;3.03;;
7531;SDS011;3807;49.030;8.714;2022-12-29T18:20:11;7.13;;;3.10;;
7531;SDS011;3807;49.030;8.714;2022-12-29T18:22:37;3.60;;;1.67;;
7531;SDS011;3807;49.030;8.714;2022-12-29T18:25:08;5.00;;;2.00;;
7531;SDS011;3807;49.030;8.714;2022-12-29T18:27:45;5.37;;;1.97;;
7531;SDS011;3807;49.030;8.714;2022-12-29T18:30:10;6.37;;;2.40;;
7531;SDS011;3807;49.030;8.714;2022-12-29T18:32:36;4.50;;;2.80;;
7531;SDS011;3807;49.030;8.714;2022-12-29T18:35:01;5.47;;;2.00;;
7531;SDS011;3807;49.030;8.714;2022-12-29T18:37:26;4.00;;;1.80;;
7531;SDS011;3807;49.030;8.714;2022-12-29T18:39:52;5.83;;;2.40;;
7531;SDS011;3807;49.030;8.714;2022-12-29T18:42:17;6.60;;;2.47;;